sensor_id;sensor_type;location;lat;lon;timestamp;P1;durP1;ratioP1;P2;durP2;ratioP2
16577;SDS011;8401;52.528;13.340;2022-12-17T00:01:17;57.87;;;26.70;;
16577;SDS011;8401;52.528;13.340;2022-12-17T00:04:01;60.33;;;27.47;;
16577;SDS011;8401;52.528;13.340;2022-12-17T00:06:45;56.13;;;28.13;;
16577;SDS011;8401;52.528;13.340;2022-12-17T00:09:29;56.43;;;28.37;;
16577;SDS011;8401;52.528;13.340;2022-12-17T00:12:13;62.37;;;27.90;;
16577;SDS011;8401;52.528;13.340;2022-12-17T00:14:58;58.57;;;26.73;;
16577;SDS011;8401;52.528;13.340;2022-12-17T00:17:42;54.67;;;27.97;;
16577;SDS011;8401;52.528;13.340;2022-12-17T00:20:26;60.90;;;28.40;;
16577;SDS011;8401;52.528;13.340;2022-12-17T00:23:10;63.43;;;28.57;;
16577;SDS011;8401;52.528;13.340;2022-12-17T00:25:54;71.83;;;30.17;;
16577;SDS011;8401;52.528;13.340;2022-12-17T00:28:38;72.83;;;31.77;;
16577;SDS011;8401;52.528;13.340;2022-12-17T00:31:27;72.27;;;27.83;;
16577;SDS011;8401;52.528;13.340;2022-12-17T00:34:12;66.23;;;27.47;;
16577;SDS011;8401;52.528;13.340;2022-12-17T00:36:56;62.17;;;27.93;;
16577;SDS011;8401;52.528;13.340;2022-12-17T00:39:40;76.80;;;27.47;;
16577;SDS011;8401;52.528;13.340;2022-12-17T00:42:24;64.43;;;26.73;;
16577;SDS011;8401;52.528;13.340;2022-12-17T00:45:08;67.87;;;24.83;;
16577;SDS011;8401;52.528;13.340;2022-12-17T00:47:53;56.17;;;24.07;;
16577;SDS011;8401;52.528;13.340;2022-12-17T00:50:37;62.70;;;24.00;;
16577;SDS011;8401;52.528;13.340;2022-12-17T00:53:21;59.80;;;24.63;;
16577;SDS011;8401;52.528;13.340;2022-12-17T00:56:05;54.13;;;22.80;;
16577;SDS011;8401;52.528;13.340;2022-12-17T00:58:49;53.03;;;20.80;;
16577;SDS011;8401;52.528;13.340;2022-12-17T01:01:34;51.80;;;22.23;;
16577;SDS011;8401;52.528;13.340;2022-12-17T01:04:18;47.40;;;22.30;;
16577;SDS011;8401;52.528;13.340;2022-12-17T01:07:02;52.23;;;20.90;;
16577;SDS011;8401;52.528;13.340;2022-12-17T01:09:46;50.43;;;20.63;;
16577;SDS011;8401;52.528;13.340;2022-12-17T01:12:30;49.93;;;20.37;;
16577;SDS011;8401;52.528;13.340;2022-12-17T01:15:14;41.67;;;18.47;;
16577;SDS011;8401;52.528;13.340;2022-12-17T01:17:59;48.60;;;21.37;;
16577;SDS011;8401;52.528;13.340;2022-12-17T01:20:43;51.17;;;21.00;;
16577;SDS011;8401;52.528;13.340;2022-12-17T01:23:27;50.37;;;22.10;;
16577;SDS011;8401;52.528;13.340;2022-12-17T01:26:11;48.77;;;20.47;;
16577;SDS011;8401;52.528;13.340;2022-12-17T01:28:58;54.33;;;21.10;;
16577;SDS011;8401;52.528;13.340;2022-12-17T01:31:42;55.30;;;23.27;;
16577;SDS011;8401;52.528;13.340;2022-12-17T01:34:26;46.83;;;20.90;;
16577;SDS011;8401;52.528;13.340;2022-12-17T01:37:13;56.37;;;23.17;;
16577;SDS011;8401;52.528;13.340;2022-12-17T01:39:58;55.77;;;21.60;;
16577;SDS011;8401;52.528;13.340;2022-12-17T01:42:44;48.40;;;20.57;;
16577;SDS011;8401;52.528;13.340;2022-12-17T01:45:44;47.40;;;19.37;;
16577;SDS011;8401;52.528;13.340;2022-12-17T01:48:33;42.37;;;19.50;;
16577;SDS011;8401;52.528;13.340;2022-12-17T01:51:21;42.63;;;20.23;;
16577;SDS011;8401;52.528;13.340;2022-12-17T01:54:08;49.07;;;20.17;;
16577;SDS011;8401;52.528;13.340;2022-12-17T01:56:56;47.67;;;19.67;;
16577;SDS011;8401;52.528;13.340;2022-12-17T01:59:46;45.50;;;19.03;;
16577;SDS011;8401;52.528;13.340;2022-12-17T02:02:39;49.93;;;21.33;;
16577;SDS011;8401;52.528;13.340;2022-12-17T02:05:27;49.60;;;21.60;;
16577;SDS011;8401;52.528;13.340;2022-12-17T02:09:07;50.53;;;22.03;;
16577;SDS011;8401;52.528;13.340;2022-12-17T02:11:44;41.20;;;17.97;;
16577;SDS011;8401;52.528;13.340;2022-12-17T02:14:51;42.03;;;19.03;;
16577;SDS011;8401;52.528;13.340;2022-12-17T02:17:59;47.40;;;18.10;;
16577;SDS011;8401;52.528;13.340;2022-12-17T02:20:48;46.60;;;19.27;;
16577;SDS011;8401;52.528;13.340;2022-12-17T02:26:35;39.53;;;18.17;;
16577;SDS011;8401;52.528;13.340;2022-12-17T02:29:32;42.73;;;17.27;;
16577;SDS011;8401;52.528;13.340;2022-12-17T02:32:21;42.53;;;18.10;;
16577;SDS011;8401;52.528;13.340;2022-12-17T02:35:14;36.23;;;17.27;;
16577;SDS011;8401;52.528;13.340;2022-12-17T02:38:01;37.33;;;17.23;;
16577;SDS011;8401;52.528;13.340;2022-12-17T02:40:59;38.90;;;17.57;;
16577;SDS011;8401;52.528;13.340;2022-12-17T02:43:43;42.70;;;19.47;;
16577;SDS011;8401;52.528;13.340;2022-12-17T02:46:27;37.80;;;17.27;;
16577;SDS011;8401;52.528;13.340;2022-12-17T02:49:11;37.63;;;16.70;;
16577;SDS011;8401;52.528;13.340;2022-12-17T02:51:55;40.70;;;18.20;;
16577;SDS011;8401;52.528;13.340;2022-12-17T02:54:40;38.37;;;16.00;;
16577;SDS011;8401;52.528;13.340;2022-12-17T02:57:24;39.93;;;17.30;;
16577;SDS011;8401;52.528;13.340;2022-12-17T03:00:08;37.77;;;16.43;;
16577;SDS011;8401;52.528;13.340;2022-12-17T03:02:53;32.00;;;16.07;;
16577;SDS011;8401;52.528;13.340;2022-12-17T03:05:37;34.30;;;15.30;;
16577;SDS011;8401;52.528;13.340;2022-12-17T03:08:21;35.43;;;16.90;;
16577;SDS011;8401;52.528;13.340;2022-12-17T03:11:05;36.40;;;15.83;;
16577;SDS011;8401;52.528;13.340;2022-12-17T03:13:49;30.43;;;15.30;;
16577;SDS011;8401;52.528;13.340;2022-12-17T03:16:33;30.87;;;15.93;;
16577;SDS011;8401;52.528;13.340;2022-12-17T03:19:20;29.03;;;13.57;;
16577;SDS011;8401;52.528;13.340;2022-12-17T03:22:04;29.53;;;13.77;;
16577;SDS011;8401;52.528;13.340;2022-12-17T03:24:48;29.87;;;14.93;;
16577;SDS011;8401;52.528;13.340;2022-12-17T03:27:32;31.47;;;14.87;;
16577;SDS011;8401;52.528;13.340;2022-12-17T03:30:16;32.07;;;14.20;;
16577;SDS011;8401;52.528;13.340;2022-12-17T03:33:00;32.67;;;16.27;;
16577;SDS011;8401;52.528;13.340;2022-12-17T03:35:45;37.03;;;16.20;;
16577;SDS011;8401;52.528;13.340;2022-12-17T03:38:29;31.17;;;14.57;;
16577;SDS011;8401;52.528;13.340;2022-12-17T03:41:13;36.27;;;17.03;;
16577;SDS011;8401;52.528;13.340;2022-12-17T03:43:57;40.53;;;16.30;;
16577;SDS011;8401;52.528;13.340;2022-12-17T03:46:41;37.77;;;17.30;;
16577;SDS011;8401;52.528;13.340;2022-12-17T03:49:25;35.17;;;14.67;;
16577;SDS011;8401;52.528;13.340;2022-12-17T03:52:09;35.80;;;15.13;;
16577;SDS011;8401;52.528;13.340;2022-12-17T03:54:54;35.90;;;16.57;;
16577;SDS011;8401;52.528;13.340;2022-12-17T03:57:38;33.77;;;15.00;;
16577;SDS011;8401;52.528;13.340;2022-12-17T04:00:22;36.60;;;16.23;;
16577;SDS011;8401;52.528;13.340;2022-12-17T04:03:06;38.77;;;16.80;;
16577;SDS011;8401;52.528;13.340;2022-12-17T04:05:50;45.43;;;16.17;;
16577;SDS011;8401;52.528;13.340;2022-12-17T04:08:34;42.13;;;17.43;;
16577;SDS011;8401;52.528;13.340;2022-12-17T04:11:18;42.07;;;16.30;;
16577;SDS011;8401;52.528;13.340;2022-12-17T04:14:02;42.50;;;16.77;;
16577;SDS011;8401;52.528;13.340;2022-12-17T04:16:46;43.43;;;17.57;;
16577;SDS011;8401;52.528;13.340;2022-12-17T04:19:31;45.70;;;17.40;;
16577;SDS011;8401;52.528;13.340;2022-12-17T04:22:15;43.10;;;18.43;;
16577;SDS011;8401;52.528;13.340;2022-12-17T04:24:59;41.17;;;16.37;;
16577;SDS011;8401;52.528;13.340;2022-12-17T04:27:43;48.27;;;18.07;;
16577;SDS011;8401;52.528;13.340;2022-12-17T04:30:27;45.07;;;17.27;;
16577;SDS011;8401;52.528;13.340;2022-12-17T04:33:11;45.87;;;15.93;;
16577;SDS011;8401;52.528;13.340;2022-12-17T04:35:55;42.40;;;17.33;;
16577;SDS011;8401;52.528;13.340;2022-12-17T04:38:39;49.13;;;19.10;;
16577;SDS011;8401;52.528;13.340;2022-12-17T04:41:23;48.13;;;18.60;;
16577;SDS011;8401;52.528;13.340;2022-12-17T04:44:09;42.73;;;18.40;;
16577;SDS011;8401;52.528;13.340;2022-12-17T04:46:53;40.67;;;17.33;;
16577;SDS011;8401;52.528;13.340;2022-12-17T04:49:37;42.43;;;16.60;;
16577;SDS011;8401;52.528;13.340;2022-12-17T04:52:21;44.20;;;18.70;;
16577;SDS011;8401;52.528;13.340;2022-12-17T04:55:06;42.37;;;17.97;;
16577;SDS011;8401;52.528;13.340;2022-12-17T04:57:50;42.57;;;17.17;;
16577;SDS011;8401;52.528;13.340;2022-12-17T05:00:34;40.37;;;15.60;;
16577;SDS011;8401;52.528;13.340;2022-12-17T05:03:18;36.20;;;15.70;;
16577;SDS011;8401;52.528;13.340;2022-12-17T05:06:02;32.67;;;15.70;;
16577;SDS011;8401;52.528;13.340;2022-12-17T05:08:46;33.70;;;15.30;;
16577;SDS011;8401;52.528;13.340;2022-12-17T05:11:30;33.17;;;15.30;;
16577;SDS011;8401;52.528;13.340;2022-12-17T05:14:14;38.33;;;18.03;;
16577;SDS011;8401;52.528;13.340;2022-12-17T05:16:59;35.33;;;16.60;;
16577;SDS011;8401;52.528;13.340;2022-12-17T05:19:43;39.40;;;16.40;;
16577;SDS011;8401;52.528;13.340;2022-12-17T05:22:27;36.03;;;15.83;;
16577;SDS011;8401;52.528;13.340;2022-12-17T05:25:11;38.40;;;16.80;;
16577;SDS011;8401;52.528;13.340;2022-12-17T05:27:55;29.77;;;15.00;;
16577;SDS011;8401;52.528;13.340;2022-12-17T05:30:39;29.73;;;15.03;;
16577;SDS011;8401;52.528;13.340;2022-12-17T05:33:24;33.10;;;15.63;;
16577;SDS011;8401;52.528;13.340;2022-12-17T05:36:08;33.00;;;15.27;;
16577;SDS011;8401;52.528;13.340;2022-12-17T05:38:51;31.87;;;15.87;;
16577;SDS011;8401;52.528;13.340;2022-12-17T05:41:36;34.63;;;16.13;;
16577;SDS011;8401;52.528;13.340;2022-12-17T05:44:20;31.87;;;14.63;;
16577;SDS011;8401;52.528;13.340;2022-12-17T05:47:04;35.80;;;15.70;;
16577;SDS011;8401;52.528;13.340;2022-12-17T05:49:48;33.70;;;15.77;;
16577;SDS011;8401;52.528;13.340;2022-12-17T05:52:34;37.47;;;16.97;;
16577;SDS011;8401;52.528;13.340;2022-12-17T05:55:19;32.00;;;14.37;;
16577;SDS011;8401;52.528;13.340;2022-12-17T05:58:07;31.33;;;14.50;;
16577;SDS011;8401;52.528;13.340;2022-12-17T06:00:56;28.63;;;14.40;;
16577;SDS011;8401;52.528;13.340;2022-12-17T06:03:41;32.30;;;14.23;;
16577;SDS011;8401;52.528;13.340;2022-12-17T06:06:26;36.37;;;14.70;;
16577;SDS011;8401;52.528;13.340;2022-12-17T06:09:10;29.90;;;14.77;;
16577;SDS011;8401;52.528;13.340;2022-12-17T06:11:54;34.10;;;15.10;;
16577;SDS011;8401;52.528;13.340;2022-12-17T06:14:38;34.33;;;16.27;;
16577;SDS011;8401;52.528;13.340;2022-12-17T06:17:23;30.00;;;15.43;;
16577;SDS011;8401;52.528;13.340;2022-12-17T06:20:07;32.17;;;15.77;;
16577;SDS011;8401;52.528;13.340;2022-12-17T06:23:01;34.63;;;16.80;;
16577;SDS011;8401;52.528;13.340;2022-12-17T06:25:47;34.97;;;15.40;;
16577;SDS011;8401;52.528;13.340;2022-12-17T06:28:31;32.67;;;15.00;;
16577;SDS011;8401;52.528;13.340;2022-12-17T06:31:16;35.77;;;17.07;;
16577;SDS011;8401;52.528;13.340;2022-12-17T06:34:00;33.93;;;15.87;;
16577;SDS011;8401;52.528;13.340;2022-12-17T06:36:44;34.47;;;15.27;;
16577;SDS011;8401;52.528;13.340;2022-12-17T06:39:29;35.73;;;16.37;;
16577;SDS011;8401;52.528;13.340;2022-12-17T06:42:13;35.10;;;16.40;;
16577;SDS011;8401;52.528;13.340;2022-12-17T06:44:57;39.60;;;17.83;;
16577;SDS011;8401;52.528;13.340;2022-12-17T06:47:41;31.23;;;14.13;;
16577;SDS011;8401;52.528;13.340;2022-12-17T06:50:25;29.87;;;14.17;;
16577;SDS011;8401;52.528;13.340;2022-12-17T06:53:09;35.13;;;15.17;;
16577;SDS011;8401;52.528;13.340;2022-12-17T06:55:55;33.37;;;15.90;;
16577;SDS011;8401;52.528;13.340;2022-12-17T06:58:40;39.77;;;17.57;;
16577;SDS011;8401;52.528;13.340;2022-12-17T07:01:25;37.53;;;17.10;;
16577;SDS011;8401;52.528;13.340;2022-12-17T07:04:10;37.77;;;17.47;;
16577;SDS011;8401;52.528;13.340;2022-12-17T07:06:54;36.17;;;16.63;;
16577;SDS011;8401;52.528;13.340;2022-12-17T07:09:39;35.67;;;17.33;;
16577;SDS011;8401;52.528;13.340;2022-12-17T07:12:23;37.67;;;14.53;;
16577;SDS011;8401;52.528;13.340;2022-12-17T07:15:07;33.63;;;14.77;;
16577;SDS011;8401;52.528;13.340;2022-12-17T07:17:59;35.70;;;14.80;;
16577;SDS011;8401;52.528;13.340;2022-12-17T07:20:44;31.10;;;15.53;;
16577;SDS011;8401;52.528;13.340;2022-12-17T07:23:29;35.90;;;15.30;;
16577;SDS011;8401;52.528;13.340;2022-12-17T07:26:14;33.93;;;15.77;;
16577;SDS011;8401;52.528;13.340;2022-12-17T07:28:58;35.00;;;16.20;;
16577;SDS011;8401;52.528;13.340;2022-12-17T07:31:42;35.33;;;16.00;;
16577;SDS011;8401;52.528;13.340;2022-12-17T07:34:26;29.07;;;14.53;;
16577;SDS011;8401;52.528;13.340;2022-12-17T07:37:10;32.93;;;16.23;;
16577;SDS011;8401;52.528;13.340;2022-12-17T07:39:54;29.93;;;14.27;;
16577;SDS011;8401;52.528;13.340;2022-12-17T07:42:39;34.60;;;15.27;;
16577;SDS011;8401;52.528;13.340;2022-12-17T07:45:23;32.53;;;17.00;;
16577;SDS011;8401;52.528;13.340;2022-12-17T07:48:08;38.40;;;17.60;;
16577;SDS011;8401;52.528;13.340;2022-12-17T07:50:54;31.00;;;15.60;;
16577;SDS011;8401;52.528;13.340;2022-12-17T07:53:38;39.73;;;19.63;;
16577;SDS011;8401;52.528;13.340;2022-12-17T07:56:23;34.50;;;15.97;;
16577;SDS011;8401;52.528;13.340;2022-12-17T07:59:07;34.20;;;16.57;;
16577;SDS011;8401;52.528;13.340;2022-12-17T08:01:51;36.67;;;17.47;;
16577;SDS011;8401;52.528;13.340;2022-12-17T08:04:35;35.67;;;16.20;;
16577;SDS011;8401;52.528;13.340;2022-12-17T08:07:19;34.90;;;16.17;;
16577;SDS011;8401;52.528;13.340;2022-12-17T08:10:04;40.60;;;18.00;;
16577;SDS011;8401;52.528;13.340;2022-12-17T08:12:55;32.43;;;14.70;;
16577;SDS011;8401;52.528;13.340;2022-12-17T08:15:40;33.27;;;15.73;;
16577;SDS011;8401;52.528;13.340;2022-12-17T08:18:25;34.37;;;16.70;;
16577;SDS011;8401;52.528;13.340;2022-12-17T08:21:09;32.57;;;15.67;;
16577;SDS011;8401;52.528;13.340;2022-12-17T08:23:54;31.37;;;16.73;;
16577;SDS011;8401;52.528;13.340;2022-12-17T08:26:38;33.97;;;16.60;;
16577;SDS011;8401;52.528;13.340;2022-12-17T08:29:22;34.13;;;15.97;;
16577;SDS011;8401;52.528;13.340;2022-12-17T08:32:06;33.93;;;17.57;;
16577;SDS011;8401;52.528;13.340;2022-12-17T08:34:50;35.63;;;16.80;;
16577;SDS011;8401;52.528;13.340;2022-12-17T08:37:34;46.40;;;19.33;;
16577;SDS011;8401;52.528;13.340;2022-12-17T08:40:18;34.50;;;17.30;;
16577;SDS011;8401;52.528;13.340;2022-12-17T08:43:03;34.73;;;17.63;;
16577;SDS011;8401;52.528;13.340;2022-12-17T08:45:47;34.70;;;17.77;;
16577;SDS011;8401;52.528;13.340;2022-12-17T08:48:33;31.23;;;16.67;;
16577;SDS011;8401;52.528;13.340;2022-12-17T08:51:17;39.37;;;18.40;;
16577;SDS011;8401;52.528;13.340;2022-12-17T08:54:02;42.53;;;20.27;;
16577;SDS011;8401;52.528;13.340;2022-12-17T08:56:46;43.17;;;20.27;;
16577;SDS011;8401;52.528;13.340;2022-12-17T08:59:30;41.67;;;19.10;;
16577;SDS011;8401;52.528;13.340;2022-12-17T09:02:14;42.10;;;19.27;;
16577;SDS011;8401;52.528;13.340;2022-12-17T09:04:58;43.73;;;19.37;;
16577;SDS011;8401;52.528;13.340;2022-12-17T09:07:43;48.40;;;20.63;;
16577;SDS011;8401;52.528;13.340;2022-12-17T09:10:27;38.93;;;20.20;;
16577;SDS011;8401;52.528;13.340;2022-12-17T09:13:11;43.67;;;20.73;;
16577;SDS011;8401;52.528;13.340;2022-12-17T09:15:55;44.37;;;20.80;;
16577;SDS011;8401;52.528;13.340;2022-12-17T09:18:40;43.97;;;20.47;;
16577;SDS011;8401;52.528;13.340;2022-12-17T09:21:28;45.87;;;20.03;;
16577;SDS011;8401;52.528;13.340;2022-12-17T09:24:13;41.10;;;19.17;;
16577;SDS011;8401;52.528;13.340;2022-12-17T09:26:58;47.00;;;21.37;;
16577;SDS011;8401;52.528;13.340;2022-12-17T09:29:43;44.03;;;21.30;;
16577;SDS011;8401;52.528;13.340;2022-12-17T09:32:27;50.53;;;23.03;;
16577;SDS011;8401;52.528;13.340;2022-12-17T09:35:12;46.40;;;19.87;;
16577;SDS011;8401;52.528;13.340;2022-12-17T09:37:56;47.70;;;20.37;;
16577;SDS011;8401;52.528;13.340;2022-12-17T09:40:41;52.63;;;21.83;;
16577;SDS011;8401;52.528;13.340;2022-12-17T09:43:33;50.70;;;21.97;;
16577;SDS011;8401;52.528;13.340;2022-12-17T09:46:34;45.43;;;19.87;;
16577;SDS011;8401;52.528;13.340;2022-12-17T09:49:27;44.17;;;21.50;;
16577;SDS011;8401;52.528;13.340;2022-12-17T09:52:18;45.23;;;20.43;;
16577;SDS011;8401;52.528;13.340;2022-12-17T09:55:08;49.30;;;22.07;;
16577;SDS011;8401;52.528;13.340;2022-12-17T09:58:03;48.87;;;21.03;;
16577;SDS011;8401;52.528;13.340;2022-12-17T10:00:47;47.13;;;19.97;;
16577;SDS011;8401;52.528;13.340;2022-12-17T10:03:32;46.97;;;20.33;;
16577;SDS011;8401;52.528;13.340;2022-12-17T10:06:21;46.67;;;20.53;;
16577;SDS011;8401;52.528;13.340;2022-12-17T10:09:14;48.03;;;21.27;;
16577;SDS011;8401;52.528;13.340;2022-12-17T10:12:16;47.03;;;19.30;;
16577;SDS011;8401;52.528;13.340;2022-12-17T10:15:03;45.33;;;18.47;;
16577;SDS011;8401;52.528;13.340;2022-12-17T10:17:48;48.67;;;19.57;;
16577;SDS011;8401;52.528;13.340;2022-12-17T10:20:34;49.43;;;20.93;;
16577;SDS011;8401;52.528;13.340;2022-12-17T10:23:29;48.90;;;20.87;;
16577;SDS011;8401;52.528;13.340;2022-12-17T10:26:18;45.93;;;19.67;;
16577;SDS011;8401;52.528;13.340;2022-12-17T10:29:08;48.47;;;21.30;;
16577;SDS011;8401;52.528;13.340;2022-12-17T10:31:58;52.43;;;21.77;;
16577;SDS011;8401;52.528;13.340;2022-12-17T10:34:51;47.23;;;21.37;;
16577;SDS011;8401;52.528;13.340;2022-12-17T10:37:35;49.07;;;21.10;;
16577;SDS011;8401;52.528;13.340;2022-12-17T10:40:31;47.97;;;21.87;;
16577;SDS011;8401;52.528;13.340;2022-12-17T10:43:37;45.97;;;22.17;;
16577;SDS011;8401;52.528;13.340;2022-12-17T10:46:23;52.17;;;21.27;;
16577;SDS011;8401;52.528;13.340;2022-12-17T10:49:09;51.37;;;21.70;;
16577;SDS011;8401;52.528;13.340;2022-12-17T10:51:58;53.50;;;20.47;;
16577;SDS011;8401;52.528;13.340;2022-12-17T10:54:53;44.30;;;20.67;;
16577;SDS011;8401;52.528;13.340;2022-12-17T10:57:38;54.70;;;22.57;;
16577;SDS011;8401;52.528;13.340;2022-12-17T11:00:30;52.60;;;25.20;;
16577;SDS011;8401;52.528;13.340;2022-12-17T11:03:51;52.10;;;23.60;;
16577;SDS011;8401;52.528;13.340;2022-12-17T11:15:22;50.30;;;21.97;;
16577;SDS011;8401;52.528;13.340;2022-12-17T11:18:18;47.47;;;21.60;;
16577;SDS011;8401;52.528;13.340;2022-12-17T11:21:10;54.10;;;22.87;;
16577;SDS011;8401;52.528;13.340;2022-12-17T11:24:03;52.67;;;23.27;;
16577;SDS011;8401;52.528;13.340;2022-12-17T11:26:53;51.37;;;23.53;;
16577;SDS011;8401;52.528;13.340;2022-12-17T11:29:41;54.27;;;23.20;;
16577;SDS011;8401;52.528;13.340;2022-12-17T11:35:19;50.13;;;23.27;;
16577;SDS011;8401;52.528;13.340;2022-12-17T11:41:14;50.13;;;23.30;;
16577;SDS011;8401;52.528;13.340;2022-12-17T11:47:33;50.40;;;22.00;;
16577;SDS011;8401;52.528;13.340;2022-12-17T11:53:38;60.27;;;25.07;;
16577;SDS011;8401;52.528;13.340;2022-12-17T11:56:37;60.00;;;24.47;;
16577;SDS011;8401;52.528;13.340;2022-12-17T11:59:35;52.90;;;23.00;;
16577;SDS011;8401;52.528;13.340;2022-12-17T12:02:33;53.70;;;23.17;;
16577;SDS011;8401;52.528;13.340;2022-12-17T12:11:53;56.13;;;23.53;;
16577;SDS011;8401;52.528;13.340;2022-12-17T12:20:51;42.43;;;19.60;;
16577;SDS011;8401;52.528;13.340;2022-12-17T12:29:57;52.67;;;21.20;;
16577;SDS011;8401;52.528;13.340;2022-12-17T12:35:37;46.90;;;19.87;;
16577;SDS011;8401;52.528;13.340;2022-12-17T12:38:24;47.03;;;19.90;;
16577;SDS011;8401;52.528;13.340;2022-12-17T12:41:21;48.60;;;20.43;;
16577;SDS011;8401;52.528;13.340;2022-12-17T12:45:15;49.47;;;21.07;;
16577;SDS011;8401;52.528;13.340;2022-12-17T12:50:54;50.43;;;20.67;;
16577;SDS011;8401;52.528;13.340;2022-12-17T12:54:15;43.17;;;19.83;;
16577;SDS011;8401;52.528;13.340;2022-12-17T12:57:30;46.50;;;19.70;;
16577;SDS011;8401;52.528;13.340;2022-12-17T13:00:23;46.03;;;20.30;;
16577;SDS011;8401;52.528;13.340;2022-12-17T13:03:24;42.77;;;19.03;;
16577;SDS011;8401;52.528;13.340;2022-12-17T13:06:09;40.53;;;18.80;;
16577;SDS011;8401;52.528;13.340;2022-12-17T13:08:36;43.90;;;20.07;;
16577;SDS011;8401;52.528;13.340;2022-12-17T13:11:09;46.43;;;20.10;;
16577;SDS011;8401;52.528;13.340;2022-12-17T13:13:59;45.30;;;20.60;;
16577;SDS011;8401;52.528;13.340;2022-12-17T13:16:48;48.37;;;20.10;;
16577;SDS011;8401;52.528;13.340;2022-12-17T13:24:38;42.90;;;19.70;;
16577;SDS011;8401;52.528;13.340;2022-12-17T13:27:04;44.83;;;21.00;;
16577;SDS011;8401;52.528;13.340;2022-12-17T13:29:50;50.13;;;20.23;;
16577;SDS011;8401;52.528;13.340;2022-12-17T13:32:20;49.10;;;20.80;;
16577;SDS011;8401;52.528;13.340;2022-12-17T13:35:02;54.07;;;21.53;;
16577;SDS011;8401;52.528;13.340;2022-12-17T13:41:11;49.63;;;21.73;;
16577;SDS011;8401;52.528;13.340;2022-12-17T13:43:57;48.07;;;20.80;;
16577;SDS011;8401;52.528;13.340;2022-12-17T13:46:50;48.93;;;20.80;;
16577;SDS011;8401;52.528;13.340;2022-12-17T13:49:27;51.53;;;21.27;;
16577;SDS011;8401;52.528;13.340;2022-12-17T13:52:00;52.33;;;21.17;;
16577;SDS011;8401;52.528;13.340;2022-12-17T13:54:47;47.73;;;20.73;;
16577;SDS011;8401;52.528;13.340;2022-12-17T13:57:22;51.47;;;21.93;;
16577;SDS011;8401;52.528;13.340;2022-12-17T13:59:50;47.27;;;21.47;;
16577;SDS011;8401;52.528;13.340;2022-12-17T14:04:51;56.67;;;21.33;;
16577;SDS011;8401;52.528;13.340;2022-12-17T14:07:18;50.67;;;22.63;;
16577;SDS011;8401;52.528;13.340;2022-12-17T14:09:44;49.13;;;21.63;;
16577;SDS011;8401;52.528;13.340;2022-12-17T14:12:10;47.20;;;21.43;;
16577;SDS011;8401;52.528;13.340;2022-12-17T14:14:52;47.57;;;21.17;;
16577;SDS011;8401;52.528;13.340;2022-12-17T14:17:23;45.40;;;21.60;;
16577;SDS011;8401;52.528;13.340;2022-12-17T14:20:00;51.30;;;23.27;;
16577;SDS011;8401;52.528;13.340;2022-12-17T14:22:42;57.00;;;23.73;;
16577;SDS011;8401;52.528;13.340;2022-12-17T14:25:23;52.17;;;22.47;;
16577;SDS011;8401;52.528;13.340;2022-12-17T14:28:17;53.17;;;21.53;;
16577;SDS011;8401;52.528;13.340;2022-12-17T14:30:47;46.30;;;20.27;;
16577;SDS011;8401;52.528;13.340;2022-12-17T14:38:48;47.87;;;19.93;;
16577;SDS011;8401;52.528;13.340;2022-12-17T14:41:22;49.73;;;21.13;;
16577;SDS011;8401;52.528;13.340;2022-12-17T14:44:19;52.23;;;20.40;;
16577;SDS011;8401;52.528;13.340;2022-12-17T14:46:47;47.07;;;20.13;;
16577;SDS011;8401;52.528;13.340;2022-12-17T14:49:16;46.80;;;20.20;;
16577;SDS011;8401;52.528;13.340;2022-12-17T14:51:43;49.77;;;21.47;;
16577;SDS011;8401;52.528;13.340;2022-12-17T14:56:42;49.80;;;21.50;;
16577;SDS011;8401;52.528;13.340;2022-12-17T14:59:22;52.87;;;22.47;;
16577;SDS011;8401;52.528;13.340;2022-12-17T15:02:02;57.07;;;22.83;;
16577;SDS011;8401;52.528;13.340;2022-12-17T15:04:43;54.63;;;21.70;;
16577;SDS011;8401;52.528;13.340;2022-12-17T15:07:10;58.77;;;24.00;;
16577;SDS011;8401;52.528;13.340;2022-12-17T15:09:38;57.00;;;22.17;;
16577;SDS011;8401;52.528;13.340;2022-12-17T15:12:05;53.27;;;23.20;;
16577;SDS011;8401;52.528;13.340;2022-12-17T15:14:31;58.27;;;24.20;;
16577;SDS011;8401;52.528;13.340;2022-12-17T15:16:57;57.67;;;24.57;;
16577;SDS011;8401;52.528;13.340;2022-12-17T15:19:23;55.30;;;23.30;;
16577;SDS011;8401;52.528;13.340;2022-12-17T15:21:49;60.70;;;23.67;;
16577;SDS011;8401;52.528;13.340;2022-12-17T15:24:16;56.90;;;22.80;;
16577;SDS011;8401;52.528;13.340;2022-12-17T15:26:44;60.83;;;22.33;;
16577;SDS011;8401;52.528;13.340;2022-12-17T15:29:11;60.70;;;22.60;;
16577;SDS011;8401;52.528;13.340;2022-12-17T15:31:36;49.83;;;21.80;;
16577;SDS011;8401;52.528;13.340;2022-12-17T15:34:02;55.83;;;21.97;;
16577;SDS011;8401;52.528;13.340;2022-12-17T15:36:28;51.80;;;20.73;;
16577;SDS011;8401;52.528;13.340;2022-12-17T15:38:58;49.17;;;20.77;;
16577;SDS011;8401;52.528;13.340;2022-12-17T15:41:24;52.83;;;22.07;;
16577;SDS011;8401;52.528;13.340;2022-12-17T15:44:08;48.50;;;20.77;;
16577;SDS011;8401;52.528;13.340;2022-12-17T15:46:34;48.27;;;20.97;;
16577;SDS011;8401;52.528;13.340;2022-12-17T15:49:00;45.27;;;18.53;;
16577;SDS011;8401;52.528;13.340;2022-12-17T15:51:26;45.77;;;17.57;;
16577;SDS011;8401;52.528;13.340;2022-12-17T15:53:52;44.30;;;18.03;;
16577;SDS011;8401;52.528;13.340;2022-12-17T15:56:19;43.60;;;17.73;;
16577;SDS011;8401;52.528;13.340;2022-12-17T15:58:46;40.73;;;16.40;;
16577;SDS011;8401;52.528;13.340;2022-12-17T16:01:12;40.60;;;18.17;;
16577;SDS011;8401;52.528;13.340;2022-12-17T16:03:38;44.40;;;19.20;;
16577;SDS011;8401;52.528;13.340;2022-12-17T16:06:04;40.93;;;17.43;;
16577;SDS011;8401;52.528;13.340;2022-12-17T16:08:30;48.23;;;19.67;;
16577;SDS011;8401;52.528;13.340;2022-12-17T16:10:55;48.73;;;20.13;;
16577;SDS011;8401;52.528;13.340;2022-12-17T16:13:21;45.47;;;17.63;;
16577;SDS011;8401;52.528;13.340;2022-12-17T16:15:54;42.57;;;16.93;;
16577;SDS011;8401;52.528;13.340;2022-12-17T16:18:23;38.87;;;17.40;;
16577;SDS011;8401;52.528;13.340;2022-12-17T16:20:49;43.13;;;18.30;;
16577;SDS011;8401;52.528;13.340;2022-12-17T16:23:15;42.43;;;19.57;;
16577;SDS011;8401;52.528;13.340;2022-12-17T16:25:41;44.03;;;18.40;;
16577;SDS011;8401;52.528;13.340;2022-12-17T16:28:07;43.63;;;18.80;;
16577;SDS011;8401;52.528;13.340;2022-12-17T16:30:32;39.60;;;16.40;;
16577;SDS011;8401;52.528;13.340;2022-12-17T16:32:58;38.97;;;17.37;;
16577;SDS011;8401;52.528;13.340;2022-12-17T16:35:24;41.77;;;19.13;;
16577;SDS011;8401;52.528;13.340;2022-12-17T16:37:52;42.43;;;18.80;;
16577;SDS011;8401;52.528;13.340;2022-12-17T16:40:18;43.87;;;18.00;;
16577;SDS011;8401;52.528;13.340;2022-12-17T16:42:44;43.50;;;15.90;;
16577;SDS011;8401;52.528;13.340;2022-12-17T16:45:10;39.73;;;16.17;;
16577;SDS011;8401;52.528;13.340;2022-12-17T16:47:36;36.03;;;16.10;;
16577;SDS011;8401;52.528;13.340;2022-12-17T16:50:01;43.70;;;17.67;;
16577;SDS011;8401;52.528;13.340;2022-12-17T16:52:27;39.87;;;16.83;;
16577;SDS011;8401;52.528;13.340;2022-12-17T16:54:54;40.63;;;16.73;;
16577;SDS011;8401;52.528;13.340;2022-12-17T16:57:19;45.90;;;18.17;;
16577;SDS011;8401;52.528;13.340;2022-12-17T16:59:45;40.10;;;16.93;;
16577;SDS011;8401;52.528;13.340;2022-12-17T17:02:12;38.93;;;17.53;;